createdAt,value
2023-04-09T00:00:14.092Z,49.76
2023-04-09T00:02:41.233Z,49.87
2023-04-09T00:05:08.572Z,50.39
2023-04-09T00:07:35.254Z,50.15
2023-04-09T00:10:01.943Z,50.15
2023-04-09T00:12:30.373Z,50.06
2023-04-09T00:14:57.800Z,50.08
2023-04-09T00:17:24.655Z,50.33
2023-04-09T00:19:51.549Z,50.49
2023-04-09T00:22:18.296Z,50.51
2023-04-09T00:24:45.095Z,50.41
2023-04-09T00:27:11.782Z,50.49
2023-04-09T00:29:38.467Z,50.71
2023-04-09T00:32:05.828Z,50.64
2023-04-09T00:34:32.656Z,50.73
2023-04-09T00:36:59.326Z,50.71
2023-04-09T00:39:26.350Z,50.55
2023-04-09T00:42:02.442Z,50.75
2023-04-09T00:44:29.209Z,50.81
2023-04-09T00:46:56.227Z,50.55
2023-04-09T00:49:24.898Z,50.56
2023-04-09T00:51:51.823Z,50.62
2023-04-09T00:54:19.156Z,50.62
2023-04-09T00:56:46.198Z,50.78
2023-04-09T00:59:13.199Z,50.91
2023-04-09T01:01:39.900Z,50.79
2023-04-09T01:04:07.058Z,50.84
2023-04-09T01:06:52.826Z,51.00
2023-04-09T01:09:39.273Z,51.03
2023-04-09T01:12:31.781Z,51.10
2023-04-09T01:15:09.945Z,51.47
2023-04-09T01:18:01.578Z,51.35
2023-04-09T01:20:51.549Z,51.67
2023-04-09T01:23:29.563Z,51.66
2023-04-09T01:26:05.169Z,51.65
2023-04-09T01:28:37.076Z,51.38
2023-04-09T01:31:13.799Z,51.43
2023-04-09T01:33:42.299Z,51.58
2023-04-09T01:36:09.759Z,51.69
2023-04-09T01:38:39.797Z,51.57
2023-04-09T01:41:07.811Z,51.63
2023-04-09T01:43:35.111Z,51.91
2023-04-09T01:46:03.630Z,51.52
2023-04-09T01:48:32.953Z,51.68
2023-04-09T01:50:59.972Z,51.68
2023-04-09T01:53:31.147Z,51.52
2023-04-09T01:56:01.676Z,51.76
2023-04-09T01:58:28.479Z,51.77
2023-04-09T02:01:14.637Z,51.97
2023-04-09T02:03:47.417Z,52.34
2023-04-09T02:06:17.728Z,52.33
2023-04-09T02:08:47.544Z,52.30
2023-04-09T02:11:16.090Z,52.21
2023-04-09T02:13:44.250Z,52.58
2023-04-09T02:16:13.898Z,52.37
2023-04-09T02:18:40.599Z,52.66
2023-04-09T02:21:07.372Z,52.26
2023-04-09T02:23:35.073Z,52.39
2023-04-09T02:26:01.839Z,52.29
2023-04-09T02:28:28.605Z,52.66
2023-04-09T02:30:55.311Z,52.76
2023-04-09T02:33:22.530Z,52.78
2023-04-09T02:35:49.255Z,52.76
2023-04-09T02:38:16.140Z,53.11
2023-04-09T02:40:43.373Z,53.35
2023-04-09T02:43:10.616Z,52.95
2023-04-09T02:45:37.657Z,53.03
2023-04-09T02:48:04.569Z,53.18
2023-04-09T02:50:31.288Z,53.38
2023-04-09T02:52:58.199Z,53.28
2023-04-09T02:55:24.911Z,52.75
2023-04-09T02:57:51.715Z,52.73
2023-04-09T03:00:18.361Z,52.77
2023-04-09T03:02:45.151Z,52.99
2023-04-09T03:05:11.872Z,52.95
2023-04-09T03:07:38.559Z,53.02
2023-04-09T03:10:05.719Z,53.07
2023-04-09T03:12:32.423Z,52.77
2023-04-09T03:14:59.156Z,53.22
2023-04-09T03:17:27.335Z,53.12
2023-04-09T03:19:54.153Z,52.80
2023-04-09T03:22:20.925Z,52.96
2023-04-09T03:24:47.601Z,52.87
2023-04-09T03:27:14.439Z,53.04
2023-04-09T03:29:41.132Z,52.91
2023-04-09T03:32:07.794Z,52.82
2023-04-09T03:34:34.488Z,52.86
2023-04-09T03:37:01.230Z,52.72
2023-04-09T03:39:30.910Z,52.61
2023-04-09T03:41:59.046Z,52.82
2023-04-09T03:44:25.784Z,52.79
2023-04-09T03:46:52.712Z,52.67
2023-04-09T03:49:19.565Z,52.65
2023-04-09T03:51:46.315Z,52.77
2023-04-09T03:54:13.130Z,52.42
2023-04-09T03:56:39.820Z,52.30
2023-04-09T03:59:06.700Z,52.64
2023-04-09T04:01:33.549Z,52.65
2023-04-09T04:04:00.751Z,52.41
2023-04-09T04:06:27.876Z,52.25
2023-04-09T04:08:54.780Z,52.17
2023-04-09T04:11:21.701Z,52.35
2023-04-09T04:13:48.360Z,52.29
2023-04-09T04:16:15.058Z,52.28
2023-04-09T04:18:41.706Z,52.49
2023-04-09T04:21:16.101Z,52.41
2023-04-09T04:23:42.866Z,52.30
2023-04-09T04:26:11.040Z,52.53
2023-04-09T04:28:40.862Z,52.40
2023-04-09T04:31:09.854Z,52.35
2023-04-09T04:33:37.397Z,52.30
2023-04-09T04:36:08.520Z,52.21
2023-04-09T04:38:36.101Z,51.87
2023-04-09T04:41:03.692Z,52.14
2023-04-09T04:43:30.607Z,52.31
2023-04-09T04:45:57.353Z,52.20
2023-04-09T04:48:24.781Z,51.77
2023-04-09T04:50:59.472Z,51.97
2023-04-09T04:53:26.332Z,51.92
2023-04-09T04:55:53.494Z,52.14
2023-04-09T04:58:20.213Z,52.22
2023-04-09T05:00:47.269Z,51.70
2023-04-09T05:03:14.476Z,51.92
2023-04-09T05:05:41.284Z,51.68
2023-04-09T05:08:08.061Z,52.17
2023-04-09T05:10:34.777Z,52.01
2023-04-09T05:13:01.474Z,52.17
2023-04-09T05:15:28.172Z,51.97
2023-04-09T05:17:54.965Z,51.93
2023-04-09T05:20:21.856Z,51.94
2023-04-09T05:22:48.579Z,52.49
2023-04-09T05:25:16.487Z,52.32
2023-04-09T05:27:43.388Z,52.44
2023-04-09T05:30:10.415Z,52.24
2023-04-09T05:32:37.407Z,52.27
2023-04-09T05:35:04.702Z,52.12
2023-04-09T05:37:31.412Z,51.99
2023-04-09T05:39:58.090Z,52.15
2023-04-09T05:42:24.739Z,51.88
2023-04-09T05:44:51.385Z,51.86
2023-04-09T05:47:18.000Z,52.13
2023-04-09T05:49:44.658Z,52.17
2023-04-09T05:52:11.409Z,52.21
2023-04-09T05:54:38.152Z,52.12
2023-04-09T05:57:04.836Z,52.05
2023-04-09T05:59:31.485Z,51.97
2023-04-09T06:01:58.218Z,52.05
2023-04-09T06:04:25.125Z,52.38
2023-04-09T06:06:51.846Z,51.92
2023-04-09T06:09:18.501Z,51.79
2023-04-09T06:11:45.359Z,51.79
2023-04-09T06:14:16.477Z,51.93
2023-04-09T06:16:43.181Z,51.78
2023-04-09T06:19:09.942Z,51.92
2023-04-09T06:21:36.588Z,51.56
2023-04-09T06:24:03.307Z,51.75
2023-04-09T06:26:29.978Z,51.74
2023-04-09T06:28:56.665Z,51.67
2023-04-09T06:31:23.357Z,51.60
2023-04-09T06:33:50.213Z,51.66
2023-04-09T06:36:17.422Z,51.68
2023-04-09T06:38:44.051Z,51.53
2023-04-09T06:41:12.827Z,51.71
2023-04-09T06:43:39.592Z,51.44
2023-04-09T06:46:06.490Z,51.80
2023-04-09T06:48:33.360Z,51.68
2023-04-09T06:51:00.985Z,51.13
2023-04-09T06:53:27.649Z,51.38
2023-04-09T06:55:56.551Z,51.49
2023-04-09T06:58:23.741Z,51.57
2023-04-09T07:00:50.400Z,51.41
2023-04-09T07:03:17.324Z,51.42
2023-04-09T07:05:44.082Z,50.94
2023-04-09T07:08:11.754Z,51.03
2023-04-09T07:10:38.568Z,50.97
2023-04-09T07:13:05.478Z,51.13
2023-04-09T07:15:32.208Z,51.30
2023-04-09T07:17:58.933Z,50.57
2023-04-09T07:20:25.615Z,50.73
2023-04-09T07:22:52.552Z,51.01
2023-04-09T07:25:19.465Z,50.27
2023-04-09T07:27:46.193Z,50.41
2023-04-09T07:30:12.904Z,50.44
2023-04-09T07:32:39.936Z,50.17
2023-04-09T07:35:08.087Z,50.44
2023-04-09T07:37:34.747Z,50.17
2023-04-09T07:40:04.065Z,50.77
2023-04-09T07:42:31.018Z,50.49
2023-04-09T07:44:57.720Z,50.22
2023-04-09T07:47:24.793Z,50.10
2023-04-09T07:49:51.456Z,50.19
2023-04-09T07:52:18.257Z,50.25
2023-04-09T07:54:44.916Z,50.17
2023-04-09T07:57:11.578Z,49.97
2023-04-09T07:59:38.268Z,49.91
2023-04-09T08:02:05.120Z,49.64
2023-04-09T08:04:32.083Z,50.11
2023-04-09T08:06:58.860Z,49.87
2023-04-09T08:09:25.535Z,49.96
2023-04-09T08:11:52.276Z,49.54
2023-04-09T08:14:19.153Z,49.26
2023-04-09T08:16:47.740Z,49.13
2023-04-09T08:19:16.440Z,49.17
2023-04-09T08:21:43.741Z,48.98
2023-04-09T08:24:11.991Z,48.96
2023-04-09T08:26:42.805Z,48.58
2023-04-09T08:29:12.363Z,48.78
2023-04-09T08:31:39.495Z,48.33
2023-04-09T08:34:06.258Z,48.54
2023-04-09T08:36:34.810Z,48.61
2023-04-09T08:39:02.513Z,47.90
2023-04-09T08:41:29.819Z,47.18
2023-04-09T08:43:59.269Z,47.23
2023-04-09T08:46:27.422Z,48.00
2023-04-09T08:48:54.785Z,47.92
2023-04-09T08:51:24.444Z,48.11
2023-04-09T08:54:04.347Z,48.20
2023-04-09T08:56:32.175Z,48.94
2023-04-09T08:58:58.964Z,48.00
2023-04-09T09:01:31.676Z,48.41
2023-04-09T09:04:00.877Z,48.27
2023-04-09T09:06:32.709Z,48.13
2023-04-09T09:09:06.691Z,47.72
2023-04-09T09:11:35.590Z,47.23
2023-04-09T09:14:07.310Z,47.32
2023-04-09T09:16:45.024Z,46.75
2023-04-09T09:19:26.851Z,46.01
2023-04-09T09:21:57.706Z,45.79
2023-04-09T09:24:24.499Z,45.17
2023-04-09T09:26:52.296Z,44.31
2023-04-09T09:29:20.169Z,43.21
2023-04-09T09:31:54.382Z,42.65
2023-04-09T09:34:22.944Z,41.70
2023-04-09T09:36:49.971Z,40.36
2023-04-09T09:39:17.899Z,40.22
2023-04-09T09:41:46.048Z,39.52
2023-04-09T09:44:30.221Z,39.28
2023-04-09T09:46:58.804Z,39.38
2023-04-09T09:49:25.452Z,39.40
2023-04-09T09:51:56.848Z,39.38
2023-04-09T09:54:26.319Z,39.54
2023-04-09T09:57:02.196Z,39.48
2023-04-09T09:59:34.512Z,38.99
2023-04-09T10:02:06.128Z,39.01
2023-04-09T10:04:36.803Z,38.81
2023-04-09T10:07:07.386Z,38.38
2023-04-09T10:09:43.373Z,38.39
2023-04-09T10:12:12.001Z,38.91
2023-04-09T10:14:40.391Z,38.75
2023-04-09T10:17:07.729Z,38.60
2023-04-09T10:19:41.640Z,38.26
2023-04-09T10:22:14.870Z,38.01
2023-04-09T10:24:42.165Z,37.89
2023-04-09T10:27:17.640Z,38.45
2023-04-09T10:29:49.101Z,38.04
2023-04-09T10:32:28.483Z,38.32
2023-04-09T10:35:01.752Z,38.21
2023-04-09T10:37:28.909Z,37.96
2023-04-09T10:39:56.655Z,37.35
2023-04-09T10:42:30.401Z,37.73
2023-04-09T10:45:08.844Z,37.40
2023-04-09T10:47:37.555Z,37.55
2023-04-09T10:50:29.362Z,37.55
2023-04-09T10:52:58.360Z,37.58
2023-04-09T10:55:38.033Z,37.46
2023-04-09T10:58:06.179Z,36.84
2023-04-09T11:00:38.226Z,37.05
2023-04-09T11:03:22.952Z,36.71
2023-04-09T11:06:10.604Z,36.36
2023-04-09T11:08:38.920Z,35.68
2023-04-09T11:11:06.065Z,34.91
2023-04-09T11:13:33.212Z,35.72
2023-04-09T11:16:01.560Z,36.02
2023-04-09T11:18:30.502Z,36.04
2023-04-09T11:20:59.237Z,35.66
2023-04-09T11:23:26.442Z,35.94
2023-04-09T11:25:54.334Z,35.56
2023-04-09T11:28:21.338Z,35.68
2023-04-09T11:30:51.260Z,35.52
2023-04-09T11:33:20.039Z,35.36
2023-04-09T11:35:47.586Z,35.07
2023-04-09T11:38:14.311Z,35.12
2023-04-09T11:40:48.737Z,35.23
2023-04-09T11:43:16.813Z,35.08
2023-04-09T11:45:44.377Z,34.85
2023-04-09T11:48:12.275Z,35.06
2023-04-09T11:50:39.141Z,34.33
2023-04-09T11:53:19.467Z,33.51
2023-04-09T11:55:49.653Z,34.00
2023-04-09T11:58:18.467Z,34.67
2023-04-09T12:00:45.768Z,34.73
2023-04-09T12:03:12.682Z,34.64
2023-04-09T12:05:42.126Z,34.59
2023-04-09T12:08:10.531Z,34.61
2023-04-09T12:10:38.681Z,34.02
2023-04-09T12:13:13.656Z,34.31
2023-04-09T12:15:43.501Z,34.35
2023-04-09T12:18:12.172Z,34.25
2023-04-09T12:20:46.647Z,34.40
2023-04-09T12:23:13.650Z,33.89
2023-04-09T12:25:42.338Z,34.11
2023-04-09T12:28:11.178Z,33.90
2023-04-09T12:30:38.092Z,33.94
2023-04-09T12:33:05.757Z,33.73
2023-04-09T12:35:33.189Z,33.45
2023-04-09T12:37:59.909Z,33.59
2023-04-09T12:40:26.939Z,33.75
2023-04-09T12:42:54.232Z,33.47
2023-04-09T12:45:21.499Z,33.48
2023-04-09T12:47:48.243Z,33.40
2023-04-09T12:50:16.325Z,33.09
2023-04-09T12:52:44.364Z,32.91
2023-04-09T12:55:12.036Z,32.77
2023-04-09T12:57:39.783Z,32.76
2023-04-09T13:00:07.876Z,32.75
2023-04-09T13:02:35.654Z,32.63
2023-04-09T13:05:02.900Z,32.76
2023-04-09T13:07:29.619Z,32.80
2023-04-09T13:09:57.254Z,32.58
2023-04-09T13:12:24.540Z,31.42
2023-04-09T13:14:54.970Z,32.07
2023-04-09T13:17:22.522Z,32.32
2023-04-09T13:19:50.562Z,32.34
2023-04-09T13:22:18.579Z,32.13
2023-04-09T13:24:45.309Z,31.88
2023-04-09T13:27:12.137Z,31.82
2023-04-09T13:29:38.996Z,31.93
2023-04-09T13:32:07.655Z,31.92
2023-04-09T13:34:35.412Z,31.79
2023-04-09T13:37:03.494Z,31.66
2023-04-09T13:39:30.495Z,31.35
2023-04-09T13:41:57.286Z,31.20
2023-04-09T13:44:25.435Z,31.12
2023-04-09T13:46:52.504Z,31.03
2023-04-09T13:49:19.335Z,31.13
2023-04-09T13:51:46.641Z,31.08
2023-04-09T13:54:13.423Z,31.15
2023-04-09T13:56:40.543Z,31.21
2023-04-09T13:59:07.215Z,31.53
2023-04-09T14:01:34.753Z,31.36
2023-04-09T14:04:02.071Z,31.26
2023-04-09T14:06:28.924Z,30.12
2023-04-09T14:08:55.925Z,30.22
2023-04-09T14:11:22.817Z,31.21
2023-04-09T14:13:49.799Z,31.44
2023-04-09T14:16:16.581Z,31.06
2023-04-09T14:18:43.325Z,31.56
2023-04-09T14:21:10.488Z,31.59
2023-04-09T14:23:39.093Z,31.51
2023-04-09T14:26:06.645Z,31.53
2023-04-09T14:28:33.377Z,31.43
2023-04-09T14:31:00.265Z,31.11
2023-04-09T14:33:27.365Z,30.34
2023-04-09T14:35:54.082Z,31.12
2023-04-09T14:38:20.811Z,30.88
2023-04-09T14:40:47.543Z,30.04
2023-04-09T14:43:14.241Z,29.97
2023-04-09T14:45:41.122Z,30.00
2023-04-09T14:48:08.158Z,30.41
2023-04-09T14:50:36.298Z,30.95
2023-04-09T14:53:04.378Z,30.74
2023-04-09T14:55:31.218Z,30.58
2023-04-09T14:57:59.330Z,30.58
2023-04-09T15:00:26.124Z,30.44
2023-04-09T15:02:53.106Z,29.85
2023-04-09T15:05:20.063Z,29.91
2023-04-09T15:07:46.904Z,29.75
2023-04-09T15:10:13.926Z,30.45
2023-04-09T15:12:40.824Z,29.91
2023-04-09T15:15:08.973Z,29.96
2023-04-09T15:17:36.573Z,29.66
2023-04-09T15:20:04.209Z,30.21
2023-04-09T15:22:30.990Z,30.57
2023-04-09T15:24:57.693Z,30.05
2023-04-09T15:27:24.560Z,30.21
2023-04-09T15:29:51.911Z,29.87
2023-04-09T15:32:21.402Z,29.10
2023-04-09T15:34:48.101Z,29.11
2023-04-09T15:37:14.756Z,29.13
2023-04-09T15:39:41.449Z,29.12
2023-04-09T15:42:10.278Z,29.49
2023-04-09T15:44:39.104Z,29.36
2023-04-09T15:47:05.856Z,29.74
2023-04-09T15:49:35.017Z,30.03
2023-04-09T15:52:01.778Z,30.15
2023-04-09T15:54:28.436Z,30.21
2023-04-09T15:56:55.108Z,30.35
2023-04-09T15:59:21.792Z,29.91
2023-04-09T16:01:49.213Z,30.37
2023-04-09T16:04:16.194Z,30.52
2023-04-09T16:06:42.864Z,30.61
2023-04-09T16:09:09.545Z,30.65
2023-04-09T16:11:37.494Z,30.67
2023-04-09T16:14:04.269Z,30.80
2023-04-09T16:16:30.970Z,31.09
2023-04-09T16:18:57.670Z,31.53
2023-04-09T16:21:24.431Z,31.57
2023-04-09T16:23:51.722Z,31.67
2023-04-09T16:26:18.508Z,32.04
2023-04-09T16:28:45.229Z,32.32
2023-04-09T16:31:11.895Z,32.41
2023-04-09T16:33:38.753Z,32.55
2023-04-09T16:36:05.778Z,32.71
2023-04-09T16:38:32.610Z,32.95
2023-04-09T16:40:59.282Z,33.09
2023-04-09T16:43:26.223Z,33.65
2023-04-09T16:45:53.244Z,33.63
2023-04-09T16:48:20.056Z,33.71
2023-04-09T16:50:46.697Z,34.01
2023-04-09T16:53:13.459Z,34.09
2023-04-09T16:55:40.151Z,34.39
2023-04-09T16:58:06.881Z,34.64
2023-04-09T17:00:35.361Z,34.69
2023-04-09T17:03:02.398Z,34.96
2023-04-09T17:05:29.551Z,35.39
2023-04-09T17:07:56.303Z,35.17
2023-04-09T17:10:22.957Z,35.50
2023-04-09T17:12:50.713Z,35.48
2023-04-09T17:15:17.854Z,36.10
2023-04-09T17:17:45.998Z,36.11
2023-04-09T17:20:13.100Z,36.12
2023-04-09T17:22:40.063Z,36.35
2023-04-09T17:25:07.270Z,36.81
2023-04-09T17:27:34.021Z,37.07
2023-04-09T17:30:02.669Z,36.90
2023-04-09T17:32:29.465Z,37.32
2023-04-09T17:34:56.193Z,37.18
2023-04-09T17:37:22.874Z,37.26
2023-04-09T17:39:49.613Z,37.23
2023-04-09T17:42:16.467Z,37.55
2023-04-09T17:44:43.900Z,37.68
2023-04-09T17:47:11.659Z,37.72
2023-04-09T17:49:39.280Z,37.79
2023-04-09T17:52:06.263Z,37.93
2023-04-09T17:54:38.084Z,38.08
2023-04-09T17:57:07.270Z,37.82
2023-04-09T17:59:34.728Z,38.23
2023-04-09T18:02:02.477Z,38.21
2023-04-09T18:04:29.509Z,38.80
2023-04-09T18:06:56.638Z,38.38
2023-04-09T18:09:23.305Z,38.90
2023-04-09T18:11:54.888Z,39.24
2023-04-09T18:14:22.066Z,39.06
2023-04-09T18:16:49.222Z,38.97
2023-04-09T18:19:16.001Z,39.52
2023-04-09T18:21:42.686Z,39.49
2023-04-09T18:24:09.406Z,39.86
2023-04-09T18:26:36.743Z,39.54
2023-04-09T18:29:03.610Z,40.28
2023-04-09T18:31:30.473Z,40.01
2023-04-09T18:33:57.279Z,40.25
2023-04-09T18:36:24.513Z,40.21
2023-04-09T18:38:52.230Z,40.07
2023-04-09T18:41:26.178Z,40.68
2023-04-09T18:43:53.576Z,40.49
2023-04-09T18:46:20.325Z,40.51
2023-04-09T18:48:47.198Z,40.54
2023-04-09T18:51:14.611Z,40.56
2023-04-09T18:53:42.231Z,40.81
2023-04-09T18:56:09.348Z,40.73
2023-04-09T18:58:36.487Z,40.81
2023-04-09T19:01:12.757Z,41.40
2023-04-09T19:03:40.400Z,41.44
2023-04-09T19:06:15.195Z,41.14
2023-04-09T19:08:41.991Z,41.82
2023-04-09T19:11:08.743Z,41.78
2023-04-09T19:13:36.947Z,41.94
2023-04-09T19:16:04.448Z,41.83
2023-04-09T19:18:32.165Z,41.93
2023-04-09T19:20:58.897Z,42.00
2023-04-09T19:23:27.025Z,41.97
2023-04-09T19:25:55.369Z,42.41
2023-04-09T19:28:23.063Z,42.04
2023-04-09T19:30:53.705Z,42.15
2023-04-09T19:33:25.839Z,42.43
2023-04-09T19:35:54.536Z,42.34
2023-04-09T19:38:21.730Z,42.48
2023-04-09T19:40:48.478Z,42.67
2023-04-09T19:43:15.637Z,42.27
2023-04-09T19:45:45.002Z,42.72
2023-04-09T19:48:12.908Z,42.91
2023-04-09T19:50:41.183Z,43.10
2023-04-09T19:53:07.972Z,43.21
2023-04-09T19:55:35.276Z,43.08
2023-04-09T19:58:03.180Z,43.70
2023-04-09T20:00:29.917Z,43.58
2023-04-09T20:02:57.554Z,43.97
2023-04-09T20:05:24.712Z,44.08
2023-04-09T20:07:52.873Z,43.94
2023-04-09T20:10:19.757Z,44.47
2023-04-09T20:12:50.717Z,44.26
2023-04-09T20:15:20.184Z,44.12
2023-04-09T20:17:50.954Z,44.52
2023-04-09T20:20:20.921Z,44.23
2023-04-09T20:22:56.373Z,44.48
2023-04-09T20:25:24.726Z,44.63
2023-04-09T20:27:55.985Z,44.82
2023-04-09T20:30:22.770Z,45.00
2023-04-09T20:32:49.725Z,44.77
2023-04-09T20:35:16.798Z,45.25
2023-04-09T20:37:44.177Z,45.51
2023-04-09T20:40:13.847Z,45.54
2023-04-09T20:42:41.374Z,45.94
2023-04-09T20:45:09.307Z,46.12
2023-04-09T20:47:36.430Z,45.57
2023-04-09T20:50:03.379Z,46.35
2023-04-09T20:52:30.496Z,46.51
2023-04-09T20:54:57.663Z,46.61
2023-04-09T20:57:24.733Z,46.69
2023-04-09T20:59:52.954Z,46.71
2023-04-09T21:02:20.019Z,46.16
2023-04-09T21:04:46.820Z,46.56
2023-04-09T21:07:14.717Z,46.49
2023-04-09T21:09:41.619Z,46.60
2023-04-09T21:12:08.293Z,46.35
2023-04-09T21:14:35.035Z,46.93
2023-04-09T21:17:01.850Z,46.95
2023-04-09T21:19:28.596Z,47.49
2023-04-09T21:21:55.504Z,47.56
2023-04-09T21:24:22.325Z,47.41
2023-04-09T21:26:52.113Z,47.48
2023-04-09T21:29:20.747Z,47.80
2023-04-09T21:31:48.851Z,47.62
2023-04-09T21:34:16.220Z,47.69
2023-04-09T21:36:45.221Z,47.88
2023-04-09T21:39:12.689Z,47.87
2023-04-09T21:41:39.678Z,48.03
2023-04-09T21:44:08.731Z,48.37
2023-04-09T21:46:40.818Z,47.99
2023-04-09T21:49:08.194Z,47.86
2023-04-09T21:51:34.960Z,47.92
2023-04-09T21:54:09.430Z,48.16
2023-04-09T21:56:36.302Z,48.02
2023-04-09T21:59:03.742Z,48.22
2023-04-09T22:01:31.404Z,48.40
2023-04-09T22:03:59.858Z,48.36
2023-04-09T22:06:27.546Z,48.20
2023-04-09T22:08:57.061Z,48.13
2023-04-09T22:11:28.924Z,48.37
2023-04-09T22:13:56.815Z,48.62
2023-04-09T22:16:24.273Z,48.85
2023-04-09T22:18:51.791Z,48.84
2023-04-09T22:21:18.642Z,49.22
2023-04-09T22:23:45.442Z,49.38
2023-04-09T22:26:12.148Z,49.45
2023-04-09T22:28:39.430Z,49.56
2023-04-09T22:31:06.634Z,49.67
2023-04-09T22:33:33.384Z,49.30
2023-04-09T22:36:00.313Z,49.34
2023-04-09T22:38:27.353Z,49.66
2023-04-09T22:40:54.481Z,49.46
2023-04-09T22:43:21.365Z,49.47
2023-04-09T22:45:54.765Z,49.45
2023-04-09T22:48:22.943Z,49.96
2023-04-09T22:50:50.445Z,50.10
2023-04-09T22:53:20.929Z,50.19
2023-04-09T22:55:51.105Z,50.18
2023-04-09T22:58:18.816Z,50.31
2023-04-09T23:00:47.067Z,50.41
2023-04-09T23:03:14.214Z,50.10
2023-04-09T23:05:41.303Z,50.45
2023-04-09T23:08:08.364Z,50.12
2023-04-09T23:10:35.635Z,50.30
2023-04-09T23:13:02.418Z,50.05
2023-04-09T23:15:29.103Z,50.24
2023-04-09T23:17:56.211Z,50.18
2023-04-09T23:20:23.428Z,50.33
2023-04-09T23:22:50.481Z,50.33
2023-04-09T23:25:17.744Z,50.69
2023-04-09T23:27:44.501Z,50.83
2023-04-09T23:30:16.604Z,50.95
2023-04-09T23:32:46.534Z,50.85
2023-04-09T23:35:13.668Z,51.02
2023-04-09T23:37:42.461Z,51.01
2023-04-09T23:40:10.409Z,51.10
2023-04-09T23:42:37.096Z,50.90
2023-04-09T23:45:05.468Z,51.18
2023-04-09T23:47:34.289Z,51.46
2023-04-09T23:50:04.995Z,51.51
2023-04-09T23:52:36.330Z,51.66
2023-04-09T23:55:04.452Z,51.95
2023-04-09T23:57:31.274Z,52.22
2023-04-09T23:59:58.005Z,51.77
